createdAt,value
2022-10-05T00:00:48.316Z,7.53
2022-10-05T00:03:39.026Z,7.53
2022-10-05T00:06:27.043Z,7.10
2022-10-05T00:09:16.397Z,7.82
2022-10-05T00:12:10.747Z,7.22
2022-10-05T00:17:48.273Z,6.75
2022-10-05T00:20:39.208Z,6.78
2022-10-05T00:23:31.358Z,6.88
2022-10-05T00:26:22.916Z,7.13
2022-10-05T00:29:16.998Z,7.30
2022-10-05T00:32:06.522Z,8.18
2022-10-05T00:34:57.217Z,7.40
2022-10-05T00:37:49.510Z,7.28
2022-10-05T00:40:42.287Z,8.65
2022-10-05T00:43:46.554Z,6.80
2022-10-05T00:49:32.362Z,7.45
2022-10-05T00:52:25.951Z,8.68
2022-10-05T00:55:22.409Z,7.22
2022-10-05T00:58:16.046Z,7.80
2022-10-05T01:01:08.718Z,6.82
2022-10-05T01:04:01.328Z,7.05
2022-10-05T01:06:56.518Z,7.20
2022-10-05T01:09:46.186Z,7.18
2022-10-05T01:12:38.225Z,6.75
2022-10-05T01:15:28.976Z,6.85
2022-10-05T01:18:19.146Z,7.43
2022-10-05T01:21:07.930Z,6.82
2022-10-05T01:24:11.991Z,8.20
2022-10-05T01:27:06.834Z,6.80
2022-10-05T01:30:00.386Z,6.93
2022-10-05T01:32:51.609Z,7.10
2022-10-05T01:35:46.007Z,7.47
2022-10-05T01:38:38.575Z,6.25
2022-10-05T01:41:31.290Z,7.28
2022-10-05T01:44:20.968Z,7.38
2022-10-05T01:47:12.583Z,6.78
2022-10-05T01:50:01.764Z,6.70
2022-10-05T01:52:52.906Z,7.18
2022-10-05T01:55:42.359Z,6.57
2022-10-05T01:58:33.078Z,6.03
2022-10-05T02:01:25.772Z,7.47
2022-10-05T02:04:35.626Z,7.32
2022-10-05T02:07:24.841Z,6.80
2022-10-05T02:10:18.802Z,7.75
2022-10-05T02:13:10.533Z,7.13
2022-10-05T02:15:59.884Z,7.38
2022-10-05T02:18:50.397Z,7.18
2022-10-05T02:21:39.454Z,8.02
2022-10-05T02:24:31.446Z,7.50
2022-10-05T02:27:22.754Z,7.47
2022-10-05T02:30:14.226Z,7.65
2022-10-05T02:33:05.694Z,8.68
2022-10-05T02:35:52.802Z,6.93
2022-10-05T02:38:46.851Z,8.45
2022-10-05T02:41:42.931Z,6.93
2022-10-05T02:44:33.086Z,7.55
2022-10-05T02:47:27.353Z,7.03
2022-10-05T02:50:18.271Z,7.35
2022-10-05T02:53:10.860Z,7.50
2022-10-05T02:56:06.043Z,7.63
2022-10-05T02:58:56.646Z,8.40
2022-10-05T03:01:48.234Z,7.65
2022-10-05T03:04:38.807Z,7.72
2022-10-05T03:07:28.757Z,8.25
2022-10-05T03:10:20.750Z,7.78
2022-10-05T03:13:10.653Z,8.00
2022-10-05T03:16:09.294Z,8.50
2022-10-05T03:19:03.736Z,8.52
2022-10-05T03:21:54.523Z,7.90
2022-10-05T03:24:56.140Z,8.25
2022-10-05T03:27:45.794Z,8.63
2022-10-05T03:30:38.203Z,8.50
2022-10-05T03:33:29.967Z,8.65
2022-10-05T03:36:19.731Z,8.88
2022-10-05T03:39:10.630Z,9.15
2022-10-05T03:42:02.040Z,8.27
2022-10-05T03:44:54.148Z,8.75
2022-10-05T03:47:46.775Z,9.30
2022-10-05T03:50:40.907Z,8.77
2022-10-05T03:53:29.427Z,8.75
2022-10-05T03:56:21.386Z,9.00
2022-10-05T03:59:11.249Z,9.70
2022-10-05T04:02:00.042Z,8.45
2022-10-05T04:04:51.010Z,8.98
2022-10-05T04:07:43.062Z,8.73
2022-10-05T04:10:32.475Z,8.98
2022-10-05T04:13:22.898Z,9.20
2022-10-05T04:16:14.216Z,8.80
2022-10-05T04:19:03.789Z,9.13
2022-10-05T04:21:53.704Z,8.35
2022-10-05T04:24:42.031Z,8.23
2022-10-05T04:27:32.054Z,9.20
2022-10-05T04:30:22.543Z,9.18
2022-10-05T04:33:10.712Z,9.82
2022-10-05T04:36:01.426Z,9.13
2022-10-05T04:38:55.967Z,8.75
2022-10-05T04:41:51.893Z,9.43
2022-10-05T04:44:45.579Z,9.40
2022-10-05T04:47:40.019Z,9.20
2022-10-05T04:50:34.050Z,8.63
2022-10-05T04:53:25.354Z,9.90
2022-10-05T04:56:17.107Z,10.55
2022-10-05T04:59:22.832Z,10.07
2022-10-05T05:02:15.334Z,9.57
2022-10-05T05:05:15.582Z,9.13
2022-10-05T05:08:13.227Z,10.50
2022-10-05T05:11:05.626Z,10.05
2022-10-05T05:14:04.409Z,9.02
2022-10-05T05:16:57.202Z,8.82
2022-10-05T05:19:51.657Z,9.27
2022-10-05T05:22:41.981Z,10.07
2022-10-05T05:25:37.682Z,8.95
2022-10-05T05:28:28.945Z,9.52
2022-10-05T05:31:23.388Z,9.00
2022-10-05T05:37:01.098Z,9.05
2022-10-05T05:39:51.708Z,9.70
2022-10-05T05:42:44.985Z,8.23
2022-10-05T05:45:35.404Z,8.77
2022-10-05T05:48:26.978Z,9.15
2022-10-05T05:51:16.411Z,9.00
2022-10-05T05:54:12.068Z,9.30
2022-10-05T05:57:04.685Z,7.90
2022-10-05T05:59:57.922Z,10.60
2022-10-05T06:02:47.226Z,9.77
2022-10-05T06:05:39.581Z,10.18
2022-10-05T06:08:29.816Z,9.52
2022-10-05T06:11:18.784Z,8.55
2022-10-05T06:14:07.894Z,8.82
2022-10-05T06:16:56.395Z,9.52
2022-10-05T06:19:44.079Z,8.85
2022-10-05T06:22:35.950Z,9.82
2022-10-05T06:25:28.756Z,10.73
2022-10-05T06:28:16.186Z,9.35
2022-10-05T06:31:07.200Z,8.70
2022-10-05T06:33:55.528Z,10.18
2022-10-05T06:36:45.782Z,9.07
2022-10-05T06:39:43.122Z,10.10
2022-10-05T06:42:39.689Z,9.63
2022-10-05T06:45:30.842Z,9.30
2022-10-05T06:48:21.107Z,8.95
2022-10-05T06:51:12.284Z,8.88
2022-10-05T06:54:05.006Z,9.15
2022-10-05T06:56:57.163Z,9.25
2022-10-05T06:59:50.636Z,9.13
2022-10-05T07:02:42.673Z,9.07
2022-10-05T07:05:39.378Z,8.95
2022-10-05T07:08:30.946Z,8.48
2022-10-05T07:11:24.674Z,9.77
2022-10-05T07:14:20.078Z,8.52
2022-10-05T07:17:12.262Z,9.45
2022-10-05T07:20:04.403Z,9.30
2022-10-05T07:23:05.545Z,9.30
2022-10-05T07:25:54.407Z,8.38
2022-10-05T07:28:46.054Z,8.00
2022-10-05T07:31:36.223Z,8.60
2022-10-05T07:34:26.658Z,8.10
2022-10-05T07:37:32.387Z,7.53
2022-10-05T07:40:24.481Z,7.20
2022-10-05T07:43:19.854Z,8.05
2022-10-05T07:46:11.429Z,7.53
2022-10-05T07:49:03.967Z,8.45
2022-10-05T07:51:53.558Z,7.25
2022-10-05T07:54:46.128Z,8.32
2022-10-05T07:57:38.294Z,7.68
2022-10-05T08:00:26.072Z,8.45
2022-10-05T08:03:17.360Z,6.90
2022-10-05T08:06:06.757Z,7.75
2022-10-05T08:08:57.109Z,6.72
2022-10-05T08:11:49.626Z,7.05
2022-10-05T08:14:41.138Z,7.68
2022-10-05T08:17:33.053Z,6.78
2022-10-05T08:20:25.445Z,6.47
2022-10-05T08:23:18.564Z,7.45
2022-10-05T08:26:10.658Z,6.60
2022-10-05T08:29:03.745Z,6.55
2022-10-05T08:31:53.191Z,6.95
2022-10-05T08:34:45.743Z,7.22
2022-10-05T08:37:35.479Z,5.57
2022-10-05T08:40:55.316Z,6.35
2022-10-05T08:43:56.554Z,5.97
2022-10-05T08:46:54.947Z,5.50
2022-10-05T08:50:06.270Z,5.47
2022-10-05T08:53:05.946Z,5.05
2022-10-05T08:56:08.184Z,6.72
2022-10-05T08:59:02.531Z,5.97
2022-10-05T09:01:57.318Z,5.88
2022-10-05T09:04:50.280Z,5.30
2022-10-05T09:07:47.229Z,5.88
2022-10-05T09:10:56.100Z,5.55
2022-10-05T09:14:00.493Z,5.30
2022-10-05T09:19:43.874Z,5.40
2022-10-05T09:22:39.799Z,5.72
2022-10-05T09:25:31.743Z,6.40
2022-10-05T09:28:25.074Z,6.40
2022-10-05T09:31:21.684Z,6.18
2022-10-05T09:34:22.239Z,6.13
2022-10-05T09:37:20.080Z,5.70
2022-10-05T09:40:27.772Z,5.97
2022-10-05T09:43:21.926Z,4.95
2022-10-05T09:46:36.995Z,5.22
2022-10-05T09:49:46.907Z,5.43
2022-10-05T09:52:43.535Z,4.68
2022-10-05T09:55:40.323Z,4.65
2022-10-05T09:58:44.789Z,4.55
2022-10-05T10:01:42.290Z,3.88
2022-10-05T10:04:38.878Z,4.07
2022-10-05T10:07:37.520Z,4.53
2022-10-05T10:10:31.942Z,4.10
2022-10-05T10:13:31.014Z,3.75
2022-10-05T10:16:24.331Z,3.90
2022-10-05T10:19:17.698Z,4.15
2022-10-05T10:22:34.132Z,4.30
2022-10-05T10:25:28.465Z,4.65
2022-10-05T10:28:29.325Z,3.83
2022-10-05T10:31:28.364Z,3.92
2022-10-05T10:34:31.430Z,4.43
2022-10-05T10:37:34.849Z,4.40
2022-10-05T10:40:27.702Z,4.40
2022-10-05T10:43:24.476Z,4.68
2022-10-05T10:46:18.885Z,4.93
2022-10-05T10:49:17.074Z,4.85
2022-10-05T10:52:16.467Z,4.40
2022-10-05T10:55:12.079Z,4.65
2022-10-05T10:58:15.051Z,4.28
2022-10-05T11:01:10.991Z,4.93
2022-10-05T11:04:10.032Z,4.78
2022-10-05T11:07:12.059Z,4.28
2022-10-05T11:10:12.009Z,4.47
2022-10-05T11:13:15.596Z,3.95
2022-10-05T11:16:18.627Z,3.93
2022-10-05T11:19:21.689Z,4.40
2022-10-05T11:22:19.260Z,4.95
2022-10-05T11:25:24.197Z,4.47
2022-10-05T11:28:29.742Z,4.00
2022-10-05T11:31:29.245Z,4.15
2022-10-05T11:34:25.887Z,3.80
2022-10-05T11:37:21.111Z,3.85
2022-10-05T11:40:34.332Z,4.15
2022-10-05T11:43:32.448Z,4.65
2022-10-05T11:46:24.863Z,4.00
2022-10-05T11:49:21.695Z,3.92
2022-10-05T11:52:12.210Z,4.13
2022-10-05T11:55:12.420Z,4.03
2022-10-05T11:58:03.024Z,4.15
2022-10-05T12:00:54.558Z,4.30
2022-10-05T12:03:44.810Z,4.20
2022-10-05T12:06:49.172Z,4.15
2022-10-05T12:12:27.189Z,4.30
2022-10-05T12:15:19.891Z,4.05
2022-10-05T12:18:13.449Z,3.95
2022-10-05T12:21:03.387Z,3.67
2022-10-05T12:23:53.540Z,3.33
2022-10-05T12:26:44.679Z,2.92
2022-10-05T12:29:37.015Z,2.78
2022-10-05T12:32:28.039Z,3.08
2022-10-05T12:35:36.649Z,3.08
2022-10-05T12:38:29.094Z,2.63
2022-10-05T12:41:19.970Z,2.55
2022-10-05T12:44:13.099Z,2.85
2022-10-05T12:47:05.254Z,2.45
2022-10-05T12:50:09.471Z,2.85
2022-10-05T12:55:47.555Z,2.65
2022-10-05T12:58:41.016Z,2.55
2022-10-05T13:01:34.020Z,3.00
2022-10-05T13:04:27.903Z,2.75
2022-10-05T13:07:26.653Z,3.15
2022-10-05T13:10:21.135Z,2.80
2022-10-05T13:13:18.202Z,3.08
2022-10-05T13:16:11.248Z,2.90
2022-10-05T13:19:03.665Z,3.13
2022-10-05T13:21:58.762Z,3.60
2022-10-05T13:24:52.461Z,3.22
2022-10-05T13:27:42.041Z,3.63
2022-10-05T13:30:29.344Z,2.75
2022-10-05T13:33:18.054Z,3.17
2022-10-05T13:36:08.341Z,2.65
2022-10-05T13:38:58.397Z,3.00
2022-10-05T13:41:51.951Z,2.85
2022-10-05T13:44:44.393Z,2.88
2022-10-05T13:47:32.736Z,2.88
2022-10-05T13:50:22.169Z,2.65
2022-10-05T13:53:15.582Z,3.05
2022-10-05T13:56:08.419Z,2.42
2022-10-05T13:59:03.110Z,2.70
2022-10-05T14:01:53.679Z,2.63
2022-10-05T14:04:45.534Z,2.90
2022-10-05T14:07:34.909Z,2.22
2022-10-05T14:10:35.807Z,2.15
2022-10-05T14:13:26.608Z,2.95
2022-10-05T14:16:22.848Z,2.80
2022-10-05T14:19:18.561Z,2.75
2022-10-05T14:22:13.252Z,2.80
2022-10-05T14:25:13.752Z,2.88
2022-10-05T14:28:02.211Z,2.65
2022-10-05T14:30:59.273Z,3.25
2022-10-05T14:33:47.992Z,2.95
2022-10-05T14:36:36.282Z,2.95
2022-10-05T14:39:25.731Z,2.70
2022-10-05T14:42:15.168Z,3.25
2022-10-05T14:45:13.967Z,3.05
2022-10-05T14:48:09.747Z,2.85
2022-10-05T14:50:59.426Z,3.30
2022-10-05T14:53:47.319Z,3.10
2022-10-05T14:56:42.796Z,3.20
2022-10-05T14:59:33.316Z,2.53
2022-10-05T15:02:45.325Z,2.85
2022-10-05T15:05:34.738Z,2.90
2022-10-05T15:08:39.047Z,2.80
2022-10-05T15:11:32.630Z,2.70
2022-10-05T15:14:21.426Z,3.00
2022-10-05T15:17:13.583Z,3.63
2022-10-05T15:20:03.606Z,2.60
2022-10-05T15:22:52.354Z,3.00
2022-10-05T15:25:44.095Z,2.63
2022-10-05T15:28:35.208Z,2.63
2022-10-05T15:31:27.610Z,3.10
2022-10-05T15:34:17.565Z,2.40
2022-10-05T15:37:09.024Z,3.30
2022-10-05T15:39:57.661Z,2.58
2022-10-05T15:42:46.294Z,3.10
2022-10-05T15:45:34.829Z,2.92
2022-10-05T15:48:23.846Z,2.75
2022-10-05T15:51:16.710Z,2.72
2022-10-05T15:54:24.167Z,2.72
2022-10-05T15:57:15.365Z,2.50
2022-10-05T16:00:10.285Z,3.28
2022-10-05T16:03:01.934Z,2.80
2022-10-05T16:06:07.272Z,3.00
2022-10-05T16:09:04.374Z,2.70
2022-10-05T16:11:54.414Z,3.63
2022-10-05T16:14:48.742Z,2.88
2022-10-05T16:17:54.044Z,3.22
2022-10-05T16:20:46.482Z,2.95
2022-10-05T16:23:39.665Z,3.47
2022-10-05T16:26:32.909Z,3.30
2022-10-05T16:29:23.987Z,3.63
2022-10-05T16:32:13.609Z,3.40
2022-10-05T16:35:07.866Z,3.45
2022-10-05T16:37:58.778Z,3.38
2022-10-05T16:40:48.076Z,3.60
2022-10-05T16:43:39.903Z,3.75
2022-10-05T16:46:30.757Z,3.45
2022-10-05T16:49:22.014Z,3.55
2022-10-05T16:52:11.407Z,3.50
2022-10-05T16:54:59.812Z,3.47
2022-10-05T16:57:51.562Z,3.30
2022-10-05T17:00:45.587Z,3.50
2022-10-05T17:03:40.818Z,4.40
2022-10-05T17:06:37.083Z,3.90
2022-10-05T17:09:32.541Z,3.67
2022-10-05T17:12:27.641Z,4.82
2022-10-05T17:15:23.886Z,6.47
2022-10-05T17:18:17.140Z,5.38
2022-10-05T17:21:10.765Z,4.97
2022-10-05T17:24:01.960Z,5.18
2022-10-05T17:26:59.269Z,6.78
2022-10-05T17:29:49.845Z,8.52
2022-10-05T17:32:39.595Z,8.18
2022-10-05T17:35:50.904Z,9.23
2022-10-05T17:38:45.493Z,7.00
2022-10-05T17:41:32.953Z,4.95
2022-10-05T17:44:24.781Z,3.80
2022-10-05T17:47:14.124Z,3.42
2022-10-05T17:50:18.969Z,4.38
2022-10-05T17:53:38.547Z,3.83
2022-10-05T17:56:26.054Z,4.10
2022-10-05T17:59:12.879Z,3.60
2022-10-05T18:02:15.438Z,4.30
2022-10-05T18:05:03.498Z,4.10
2022-10-05T18:08:12.562Z,4.22
2022-10-05T18:11:17.233Z,4.10
2022-10-05T18:14:17.927Z,3.85
2022-10-05T18:17:11.377Z,3.50
2022-10-05T18:20:19.402Z,4.40
2022-10-05T18:23:29.491Z,4.22
2022-10-05T18:26:26.463Z,3.80
2022-10-05T18:29:42.059Z,4.10
2022-10-05T18:32:34.996Z,4.35
2022-10-05T18:35:24.139Z,4.68
2022-10-05T18:38:21.702Z,4.78
2022-10-05T18:41:13.656Z,5.30
2022-10-05T18:44:08.960Z,6.32
2022-10-05T18:46:59.823Z,10.23
2022-10-05T18:49:51.848Z,6.18
2022-10-05T18:52:49.335Z,6.20
2022-10-05T18:55:37.607Z,5.55
2022-10-05T18:58:27.002Z,7.32
2022-10-05T19:01:23.188Z,7.20
2022-10-05T19:04:16.183Z,6.80
2022-10-05T19:07:08.599Z,6.95
2022-10-05T19:10:01.732Z,5.82
2022-10-05T19:12:58.094Z,3.90
2022-10-05T19:15:49.027Z,4.13
2022-10-05T19:18:46.631Z,4.70
2022-10-05T19:21:38.211Z,6.13
2022-10-05T19:24:32.509Z,4.35
2022-10-05T19:27:24.161Z,4.25
2022-10-05T19:30:19.780Z,4.18
2022-10-05T19:33:18.322Z,4.90
2022-10-05T19:36:21.351Z,4.65
2022-10-05T19:39:12.039Z,4.78
2022-10-05T19:42:05.221Z,3.88
2022-10-05T19:44:58.320Z,3.47
2022-10-05T19:47:52.635Z,3.20
2022-10-05T19:50:39.906Z,3.65
2022-10-05T19:53:30.999Z,7.20
2022-10-05T19:56:20.323Z,4.90
2022-10-05T19:59:18.398Z,6.05
2022-10-05T20:02:05.230Z,5.72
2022-10-05T20:04:55.055Z,4.50
2022-10-05T20:07:42.209Z,3.10
2022-10-05T20:10:30.914Z,3.17
2022-10-05T20:13:22.022Z,4.30
2022-10-05T20:16:37.724Z,4.22
2022-10-05T20:19:49.057Z,5.10
2022-10-05T20:22:37.367Z,7.38
2022-10-05T20:25:31.545Z,4.50
2022-10-05T20:31:07.024Z,3.03
2022-10-05T20:33:53.976Z,3.10
2022-10-05T20:36:43.210Z,3.58
2022-10-05T20:39:31.186Z,4.43
2022-10-05T20:42:20.058Z,3.70
2022-10-05T20:45:07.457Z,3.60
2022-10-05T20:47:55.027Z,6.43
2022-10-05T20:50:42.105Z,3.22
2022-10-05T20:53:28.832Z,3.60
2022-10-05T20:56:16.163Z,3.92
2022-10-05T20:59:04.664Z,3.47
2022-10-05T21:01:51.839Z,3.70
2022-10-05T21:04:41.403Z,3.10
2022-10-05T21:07:28.808Z,3.20
2022-10-05T21:10:16.553Z,4.78
2022-10-05T21:13:04.019Z,3.72
2022-10-05T21:15:52.055Z,2.92
2022-10-05T21:18:38.883Z,3.58
2022-10-05T21:21:27.810Z,3.40
2022-10-05T21:24:16.056Z,3.10
2022-10-05T21:27:03.541Z,3.13
2022-10-05T21:29:51.169Z,3.22
2022-10-05T21:32:44.043Z,2.92
2022-10-05T21:35:31.706Z,2.80
2022-10-05T21:38:18.565Z,2.90
2022-10-05T21:41:05.332Z,2.45
2022-10-05T21:43:52.393Z,2.75
2022-10-05T21:46:39.844Z,2.38
2022-10-05T21:49:28.823Z,2.95
2022-10-05T21:52:15.839Z,3.00
2022-10-05T21:55:02.849Z,2.95
2022-10-05T21:57:49.938Z,2.88
2022-10-05T22:00:36.780Z,2.90
2022-10-05T22:03:24.202Z,2.75
2022-10-05T22:06:12.786Z,2.47
2022-10-05T22:08:59.870Z,2.78
2022-10-05T22:11:47.735Z,2.90
2022-10-05T22:14:34.845Z,3.00
2022-10-05T22:17:24.411Z,3.05
2022-10-05T22:20:12.574Z,3.03
2022-10-05T22:23:00.789Z,3.25
2022-10-05T22:25:47.784Z,3.22
2022-10-05T22:28:35.082Z,2.65
2022-10-05T22:31:22.327Z,2.38
2022-10-05T22:34:09.095Z,1.70
2022-10-05T22:36:55.871Z,1.45
2022-10-05T22:39:44.446Z,1.10
2022-10-05T22:42:31.222Z,1.08
2022-10-05T22:45:17.941Z,1.00
2022-10-05T22:48:05.018Z,1.20
2022-10-05T22:50:52.101Z,0.98
2022-10-05T22:53:38.975Z,0.95
2022-10-05T22:56:27.498Z,0.95
2022-10-05T22:59:14.207Z,0.98
2022-10-05T23:02:01.199Z,0.90
2022-10-05T23:04:48.453Z,0.98
2022-10-05T23:07:38.710Z,0.80
2022-10-05T23:10:26.149Z,1.33
2022-10-05T23:13:14.598Z,1.13
2022-10-05T23:16:06.428Z,1.08
2022-10-05T23:18:55.184Z,1.25
2022-10-05T23:21:42.977Z,1.05
2022-10-05T23:24:29.669Z,1.23
2022-10-05T23:27:16.589Z,1.08
2022-10-05T23:30:05.063Z,1.00
2022-10-05T23:32:52.272Z,1.05
2022-10-05T23:35:39.050Z,1.10
2022-10-05T23:38:26.432Z,1.58
2022-10-05T23:41:13.783Z,2.08
2022-10-05T23:44:00.601Z,1.40
2022-10-05T23:46:48.792Z,1.60
2022-10-05T23:49:35.671Z,0.95
2022-10-05T23:52:22.703Z,1.02
2022-10-05T23:55:10.100Z,0.90
2022-10-05T23:57:56.835Z,1.00
